Time;durP1;ratioP1;P1;durP2;ratioP2;P2;SDS_P1;SDS_P2;PMS_P1;PMS_P2;Temp;Humidity;BMP_temperature;BMP_pressure;BME280_temperature;BME280_humidity;BME280_pressure;Samples;Min_cycle;Max_cycle;Signal;HPM_P1;HPM_P2
2022/03/27 00:01:50;;;;;;;22.98;9.02;;;;;;;8.31;35.10;94822.06;5029613;28;20046;-52
2022/03/27 00:04:18;;;;;;;23.60;9.40;;;;;;;8.25;35.37;94820.84;5030221;28;20049;-50
2022/03/27 00:06:44;;;;;;;24.02;9.77;;;;;;;8.12;35.27;94825.03;5028280;28;20060;-55
2022/03/27 00:09:11;;;;;;;22.73;9.23;;;;;;;8.07;35.80;94822.63;5030112;28;20043;-56
2022/03/27 00:11:38;;;;;;;23.38;9.98;;;;;;;8.04;35.62;94824.16;5029794;28;20045;-48
2022/03/27 00:14:05;;;;;;;22.73;9.63;;;;;;;8.05;36.25;94820.28;5030048;28;20045;-51
2022/03/27 00:16:33;;;;;;;25.07;9.83;;;;;;;7.93;35.79;94821.34;5029536;28;20045;-51
2022/03/27 00:19:01;;;;;;;25.20;9.48;;;;;;;7.96;36.16;94817.84;5029853;28;20046;-51
2022/03/27 00:21:28;;;;;;;27.98;9.75;;;;;;;7.97;36.20;94818.66;5029875;28;20156;-53
2022/03/27 00:23:55;;;;;;;26.20;10.10;;;;;;;7.80;36.46;94817.31;5029541;28;20049;-56
2022/03/27 00:26:22;;;;;;;27.30;10.20;;;;;;;7.79;36.70;94822.00;5030019;28;20033;-49
2022/03/27 00:28:49;;;;;;;28.20;9.60;;;;;;;7.72;37.04;94824.63;5029430;28;20053;-57
2022/03/27 00:31:16;;;;;;;27.30;10.10;;;;;;;7.83;36.53;94824.75;5028548;28;20037;-50
2022/03/27 00:33:45;;;;;;;24.38;9.57;;;;;;;7.80;36.33;94820.81;5029455;28;20064;-53
2022/03/27 00:36:14;;;;;;;29.30;10.80;;;;;;;7.69;36.89;94821.91;5029780;28;20075;-50
2022/03/27 00:38:45;;;;;;;28.92;10.30;;;;;;;7.64;36.94;94811.28;5029259;28;20041;-50
2022/03/27 00:41:14;;;;;;;27.30;10.33;;;;;;;7.58;36.66;94816.31;5029897;28;20049;-56
2022/03/27 00:43:41;;;;;;;27.73;9.95;;;;;;;7.64;36.43;94823.00;5029148;28;20080;-50
2022/03/27 00:46:08;;;;;;;26.80;10.23;;;;;;;7.80;36.25;94809.88;5029699;28;20047;-48
2022/03/27 00:48:35;;;;;;;22.75;9.77;;;;;;;7.88;35.65;94816.22;5029202;28;20441;-50
2022/03/27 00:51:02;;;;;;;24.90;9.55;;;;;;;7.88;36.09;94815.44;5031076;28;20046;-49
2022/03/27 00:53:29;;;;;;;25.07;10.10;;;;;;;7.80;36.23;94817.31;5032178;28;20052;-51
2022/03/27 00:55:56;;;;;;;24.52;10.15;;;;;;;7.76;36.01;94821.94;5032885;28;20045;-49
2022/03/27 00:58:23;;;;;;;23.55;9.27;;;;;;;7.76;36.19;94814.53;5033157;28;20042;-50
2022/03/27 01:01:13;;;;;;;22.67;9.18;;;;;;;7.82;35.19;94816.94;5027728;28;20044;-53
2022/03/27 01:03:40;;;;;;;59.22;22.20;;;;;;;7.88;35.48;94816.22;5018860;28;20098;-54
2022/03/27 01:06:36;;;;;;;26.10;9.67;;;;;;;8.00;34.86;94810.47;5031955;28;20053;-55
2022/03/27 01:11:51;;;;;;;24.52;9.68;;;;;;;8.11;34.79;94809.78;5012722;28;20041;-56
2022/03/27 01:14:25;;;;;;;24.40;9.18;;;;;;;8.13;34.12;94804.72;5013119;28;20418;-50
2022/03/27 01:17:08;;;;;;;21.40;8.73;;;;;;;8.40;34.04;94792.44;5011602;28;20377;-48
2022/03/27 01:19:40;;;;;;;21.40;8.77;;;;;;;8.37;33.42;94801.41;5012593;28;20042;-52
2022/03/27 01:22:06;;;;;;;21.50;8.55;;;;;;;8.23;34.11;94793.09;5012902;28;20065;-55
2022/03/27 01:24:34;;;;;;;20.95;8.40;;;;;;;8.14;34.63;94795.34;5012588;28;20132;-55
2022/03/27 01:27:00;;;;;;;25.77;8.48;;;;;;;8.17;34.50;94789.94;5020158;28;20458;-50
2022/03/27 01:29:27;;;;;;;24.30;8.55;;;;;;;8.05;34.89;94786.69;5031399;28;20072;-55
2022/03/27 01:31:56;;;;;;;24.07;8.80;;;;;;;8.15;34.76;94791.47;5032287;28;20110;-50
2022/03/27 01:34:23;;;;;;;20.70;8.18;;;;;;;8.09;35.40;94773.81;5032792;28;20045;-55
2022/03/27 01:36:51;;;;;;;19.67;7.72;;;;;;;8.07;34.79;94770.69;5031975;28;20045;-48
2022/03/27 01:39:18;;;;;;;23.30;8.57;;;;;;;8.07;35.13;94778.88;5032448;28;20033;-48
2022/03/27 01:41:45;;;;;;;22.23;7.70;;;;;;;7.99;35.28;94784.31;5031812;28;20041;-50
2022/03/27 01:44:16;;;;;;;19.57;8.07;;;;;;;7.91;35.43;94782.69;5032428;28;20045;-54
2022/03/27 01:46:44;;;;;;;23.95;8.38;;;;;;;7.89;35.82;94786.97;5032113;28;20430;-50
2022/03/27 01:49:13;;;;;;;21.05;8.25;;;;;;;7.79;36.09;94778.28;5031924;28;20049;-50
2022/03/27 01:51:41;;;;;;;22.52;7.40;;;;;;;7.92;36.37;94783.44;5031606;28;20045;-48
2022/03/27 01:54:08;;;;;;;26.27;7.80;;;;;;;7.98;35.93;94781.94;5032103;28;20044;-46
2022/03/27 01:56:37;;;;;;;21.87;7.53;;;;;;;8.02;35.45;94779.25;5031907;28;20050;-51
2022/03/27 01:59:05;;;;;;;19.92;7.20;;;;;;;7.93;36.53;94779.56;5032285;28;20038;-53
2022/03/27 02:01:32;;;;;;;24.05;7.70;;;;;;;7.84;36.58;94770.88;5031648;28;20053;-54
2022/03/27 02:04:00;;;;;;;21.27;7.82;;;;;;;7.86;37.35;94783.00;5031455;28;20122;-48
2022/03/27 02:06:27;;;;;;;24.05;7.65;;;;;;;7.83;36.78;94774.78;5032027;28;20059;-49
2022/03/27 02:08:54;;;;;;;23.03;8.47;;;;;;;7.77;37.14;94775.13;5011826;28;20068;-50
2022/03/27 02:11:21;;;;;;;20.85;8.27;;;;;;;7.75;37.54;94774.72;5012322;28;20042;-49
2022/03/27 02:13:47;;;;;;;25.17;9.63;;;;;;;7.78;37.38;94775.91;5011559;28;20048;-48
2022/03/27 02:16:14;;;;;;;24.15;7.80;;;;;;;7.74;37.57;94773.13;5010611;28;20052;-52
2022/03/27 02:18:42;;;;;;;24.73;8.32;;;;;;;7.66;38.05;94776.97;5011050;28;20120;-54
2022/03/27 02:21:10;;;;;;;23.03;9.10;;;;;;;7.66;37.64;94773.44;5011870;28;20057;-50
2022/03/27 02:23:37;;;;;;;24.17;8.43;;;;;;;7.59;38.57;94764.03;5011355;28;20041;-52
2022/03/27 02:26:05;;;;;;;19.55;8.20;;;;;;;7.47;38.82;94766.25;5012748;28;20034;-54
2022/03/27 02:28:33;;;;;;;27.80;10.38;;;;;;;7.46;38.77;94772.88;5031230;28;20060;-53
2022/03/27 02:31:00;;;;;;;25.85;9.18;;;;;;;7.40;38.94;94775.13;5030138;28;20051;-55
2022/03/27 02:33:27;;;;;;;21.80;8.13;;;;;;;7.36;38.96;94779.78;5031505;28;20041;-47
2022/03/27 02:35:53;;;;;;;22.08;7.80;;;;;;;7.13;39.81;94777.19;5029732;28;20055;-50
2022/03/27 02:38:20;;;;;;;20.40;8.20;;;;;;;6.89;40.02;94776.50;5031425;28;20107;-52
2022/03/27 02:40:47;;;;;;;24.75;8.02;;;;;;;6.59;40.90;94784.69;5030812;28;20397;-51
2022/03/27 02:43:14;;;;;;;22.17;7.97;;;;;;;6.37;41.23;94778.13;5030241;28;20289;-52
2022/03/27 02:45:41;;;;;;;26.73;8.73;;;;;;;6.26;41.71;94782.63;5030835;28;20045;-49
2022/03/27 02:48:08;;;;;;;22.65;8.50;;;;;;;6.20;42.34;94779.47;5030029;28;20046;-49
2022/03/27 02:50:40;;;;;;;27.65;9.95;;;;;;;6.02;42.28;94776.44;5030548;28;20047;-51
2022/03/27 02:53:07;;;;;;;27.20;10.13;;;;;;;6.03;42.15;94786.19;5022407;28;20038;-52
2022/03/27 02:55:34;;;;;;;24.48;9.05;;;;;;;5.92;42.37;94785.22;5018349;28;20056;-48
2022/03/27 02:58:03;;;;;;;24.60;8.10;;;;;;;5.87;42.50;94797.19;5031099;28;20037;-50
2022/03/27 03:00:30;;;;;;;20.65;7.90;;;;;;;5.80;42.79;94788.91;5030760;28;20049;-49
2022/03/27 03:02:57;;;;;;;21.15;8.48;;;;;;;5.71;43.45;94793.78;5030533;28;20103;-56
2022/03/27 03:05:24;;;;;;;24.15;8.05;;;;;;;5.68;43.41;94791.81;5030948;28;20040;-56
2022/03/27 03:07:51;;;;;;;19.75;8.10;;;;;;;5.65;43.11;94800.69;5029021;28;20041;-52
2022/03/27 03:10:18;;;;;;;20.63;8.53;;;;;;;5.58;43.47;94793.97;5030879;28;20041;-48
2022/03/27 03:12:45;;;;;;;21.60;7.97;;;;;;;5.50;44.27;94794.22;5030372;28;20053;-52
2022/03/27 03:15:13;;;;;;;26.83;9.13;;;;;;;5.34;44.81;94797.03;5029855;28;20052;-46
2022/03/27 03:17:40;;;;;;;25.13;8.70;;;;;;;5.13;45.17;94795.47;5029884;28;20057;-50
2022/03/27 03:20:08;;;;;;;29.42;9.32;;;;;;;4.97;46.41;94787.38;5030565;28;20041;-54
2022/03/27 03:22:35;;;;;;;24.40;9.77;;;;;;;4.77;46.79;94799.41;5030168;28;20053;-49
2022/03/27 03:25:03;;;;;;;24.88;9.77;;;;;;;4.43;48.09;94795.53;5030498;28;20037;-49
2022/03/27 03:27:30;;;;;;;25.38;9.90;;;;;;;4.13;49.08;94796.84;5030481;28;20045;-59
2022/03/27 03:29:57;;;;;;;26.75;10.20;;;;;;;4.02;49.96;94803.16;5029771;28;20041;-49
2022/03/27 03:32:24;;;;;;;26.17;10.70;;;;;;;3.97;49.47;94794.13;5030707;28;20056;-49
2022/03/27 03:34:51;;;;;;;25.73;10.37;;;;;;;4.01;50.30;94794.22;5029039;28;20050;-48
2022/03/27 03:37:18;;;;;;;25.50;9.25;;;;;;;3.91;49.91;94794.75;5030556;28;20379;-49
2022/03/27 03:39:46;;;;;;;23.45;9.95;;;;;;;3.92;49.89;94793.59;5029806;28;20055;-49
2022/03/27 03:42:13;;;;;;;22.63;9.68;;;;;;;3.86;49.84;94792.28;5028984;28;20048;-55
2022/03/27 03:44:41;;;;;;;27.52;9.95;;;;;;;3.60;50.70;94793.59;5029992;28;20064;-47
2022/03/27 03:47:08;;;;;;;29.67;10.50;;;;;;;3.63;50.85;94800.25;5030340;28;20190;-47
2022/03/27 03:49:35;;;;;;;25.63;10.27;;;;;;;3.58;50.91;94804.00;5029798;28;20072;-55
2022/03/27 03:52:02;;;;;;;28.50;10.00;;;;;;;3.44;51.89;94799.03;5029123;28;20053;-48
2022/03/27 03:54:29;;;;;;;27.95;10.43;;;;;;;3.41;52.04;94791.56;5030269;28;20508;-48
2022/03/27 03:56:55;;;;;;;24.77;10.07;;;;;;;3.38;51.90;94800.38;5029556;28;20067;-50
2022/03/27 03:59:22;;;;;;;27.23;10.43;;;;;;;3.29;52.07;94800.56;5030080;28;20072;-51
2022/03/27 04:01:55;;;;;;;31.13;10.07;;;;;;;3.27;52.08;94805.53;5029880;28;20041;-49
2022/03/27 04:04:22;;;;;;;22.42;9.50;;;;;;;3.24;52.25;94800.81;5030167;28;20506;-50
2022/03/27 04:06:49;;;;;;;22.20;9.27;;;;;;;3.23;51.83;94798.44;5028048;28;20057;-56
2022/03/27 04:09:16;;;;;;;23.92;9.68;;;;;;;3.25;52.54;94807.81;5030001;28;20102;-53
2022/03/27 04:11:44;;;;;;;25.70;9.43;;;;;;;3.19;52.29;94803.78;5029708;28;20041;-48
2022/03/27 04:14:10;;;;;;;26.70;11.25;;;;;;;3.10;52.44;94792.28;5030234;28;20079;-59
2022/03/27 04:16:37;;;;;;;25.50;10.00;;;;;;;3.03;53.11;94811.88;5028206;28;20065;-50
2022/03/27 04:19:05;;;;;;;27.10;10.75;;;;;;;3.02;52.85;94798.66;5029762;28;20398;-51
2022/03/27 04:21:32;;;;;;;24.52;9.45;;;;;;;3.06;52.90;94796.81;5030011;28;20491;-48
2022/03/27 04:23:59;;;;;;;28.73;10.63;;;;;;;2.95;52.98;94799.25;5029178;28;20516;-52
2022/03/27 04:26:31;;;;;;;24.73;9.60;;;;;;;2.96;53.12;94800.84;5032180;28;20049;-48
2022/03/27 04:28:57;;;;;;;26.80;9.63;;;;;;;2.90;53.13;94796.78;5032915;28;20659;-51
2022/03/27 04:31:24;;;;;;;23.95;9.18;;;;;;;2.87;53.45;94794.75;5033797;28;20048;-51
2022/03/27 04:33:51;;;;;;;26.85;9.18;;;;;;;2.74;53.70;94800.22;5033157;28;20057;-55
2022/03/27 04:36:18;;;;;;;24.53;9.40;;;;;;;2.72;53.73;94805.19;5033813;28;20409;-49
2022/03/27 04:38:44;;;;;;;22.90;9.00;;;;;;;2.57;54.13;94800.50;5027960;28;20044;-51
2022/03/27 04:41:11;;;;;;;25.48;9.38;;;;;;;2.51;54.00;94802.63;5020342;28;20491;-51
2022/03/27 04:43:38;;;;;;;27.05;9.02;;;;;;;2.54;53.88;94799.25;5032958;28;20052;-51
2022/03/27 04:46:07;;;;;;;23.13;9.23;;;;;;;2.38;54.93;94807.31;5033392;28;20037;-57
2022/03/27 04:48:35;;;;;;;25.17;9.33;;;;;;;2.26;55.30;94803.84;5032886;28;20049;-47
2022/03/27 04:51:01;;;;;;;25.10;9.00;;;;;;;2.30;55.39;94807.44;5033382;28;20068;-53
2022/03/27 04:53:28;;;;;;;25.30;9.00;;;;;;;2.30;54.35;94810.16;5033259;28;20045;-49
2022/03/27 04:55:55;;;;;;;23.05;9.23;;;;;;;2.36;54.61;94803.38;5031648;28;20041;-55
2022/03/27 04:58:24;;;;;;;24.83;10.15;;;;;;;2.22;55.86;94816.47;5033382;28;20041;-47
2022/03/27 05:00:50;;;;;;;25.13;9.53;;;;;;;2.29;55.55;94820.16;5031464;28;20087;-50
2022/03/27 05:03:17;;;;;;;23.70;9.40;;;;;;;2.26;55.27;94811.97;5033182;28;20048;-52
2022/03/27 05:05:44;;;;;;;26.75;9.50;;;;;;;2.14;55.59;94807.34;5032709;28;20091;-51
2022/03/27 05:08:11;;;;;;;23.20;9.00;;;;;;;2.13;55.62;94817.38;5033080;28;20078;-49
2022/03/27 05:10:39;;;;;;;22.77;8.60;;;;;;;2.09;55.78;94818.38;5031502;28;20034;-52
2022/03/27 05:13:07;;;;;;;25.10;9.07;;;;;;;2.06;55.76;94822.56;5031948;28;20047;-52
2022/03/27 05:15:34;;;;;;;25.80;9.63;;;;;;;2.04;55.94;94821.34;5032289;28;20049;-53
2022/03/27 05:18:02;;;;;;;24.73;9.68;;;;;;;1.93;55.89;94821.78;5032852;28;20091;-50
2022/03/27 05:20:30;;;;;;;22.50;9.40;;;;;;;1.89;55.94;94815.47;5032414;28;20057;-50
2022/03/27 05:23:00;;;;;;;25.50;9.70;;;;;;;1.80;56.65;94820.97;5032331;28;20064;-48
2022/03/27 05:25:27;;;;;;;23.83;9.27;;;;;;;1.59;57.18;94823.78;5031877;28;20057;-51
2022/03/27 05:27:56;;;;;;;23.75;9.38;;;;;;;1.60;57.41;94817.22;5032513;28;20034;-50
2022/03/27 05:30:27;;;;;;;25.98;10.27;;;;;;;1.73;56.99;94817.22;5031661;28;20158;-47
2022/03/27 05:32:54;;;;;;;24.00;9.38;;;;;;;1.79;56.73;94824.00;5032219;28;20038;-55
2022/03/27 05:35:21;;;;;;;25.77;9.32;;;;;;;1.91;56.60;94828.63;5032749;28;20056;-56
2022/03/27 05:37:49;;;;;;;26.47;9.70;;;;;;;1.60;57.32;94824.56;5030056;28;20042;-51
2022/03/27 05:40:18;;;;;;;24.52;9.95;;;;;;;1.81;56.99;94821.75;5032520;28;20037;-49
2022/03/27 05:42:48;;;;;;;22.83;9.43;;;;;;;1.82;56.88;94820.63;5030456;28;20052;-52
2022/03/27 05:45:17;;;;;;;26.98;10.02;;;;;;;1.85;57.20;94821.88;5032761;28;20094;-55
2022/03/27 05:47:45;;;;;;;24.00;9.27;;;;;;;1.89;57.80;94820.06;5031805;28;20047;-49
2022/03/27 05:50:14;;;;;;;27.87;11.20;;;;;;;2.01;56.75;94822.78;5032578;28;20475;-50
2022/03/27 05:52:42;;;;;;;34.80;11.32;;;;;;;1.81;57.35;94835.28;5031807;28;20061;-56
2022/03/27 05:55:10;;;;;;;29.65;11.57;;;;;;;1.80;57.52;94826.38;5032291;28;20045;-50
2022/03/27 05:57:37;;;;;;;27.15;11.88;;;;;;;1.63;58.34;94829.31;5031974;28;20045;-50
2022/03/27 06:00:06;;;;;;;31.77;11.38;;;;;;;1.63;58.98;94825.78;5032124;28;20041;-49
2022/03/27 06:02:33;;;;;;;28.73;12.07;;;;;;;1.34;59.21;94832.94;5031708;28;20049;-50
2022/03/27 06:05:00;;;;;;;31.80;12.10;;;;;;;1.39;59.26;94838.16;5032038;28;20064;-49
2022/03/27 06:07:27;;;;;;;31.75;11.38;;;;;;;1.64;59.13;94836.28;5026228;28;20053;-51
2022/03/27 06:09:54;;;;;;;31.60;11.13;;;;;;;1.86;58.55;94832.38;5022995;28;20052;-52
2022/03/27 06:12:20;;;;;;;27.48;11.02;;;;;;;1.94;58.83;94839.59;5010754;28;20045;-56
2022/03/27 06:14:48;;;;;;;31.00;11.90;;;;;;;2.02;58.35;94835.19;5011845;28;20053;-48
2022/03/27 06:17:14;;;;;;;30.65;11.73;;;;;;;2.21;57.66;94840.03;5012274;28;20048;-50
2022/03/27 06:19:41;;;;;;;26.73;10.50;;;;;;;2.46;56.70;94829.19;5011579;28;20411;-51
2022/03/27 06:22:08;;;;;;;29.75;10.88;;;;;;;2.66;56.56;94835.59;5011827;28;20064;-53
2022/03/27 06:24:35;;;;;;;29.00;11.50;;;;;;;2.83;55.98;94842.66;5011613;28;20394;-51
2022/03/27 06:27:02;;;;;;;25.70;10.70;;;;;;;2.92;56.01;94832.47;5020685;28;20043;-49
2022/03/27 06:29:29;;;;;;;24.45;10.52;;;;;;;2.83;56.22;94835.31;5031538;28;20056;-52
2022/03/27 06:31:55;;;;;;;31.27;11.20;;;;;;;2.84;56.20;94831.50;5031032;28;20041;-52
2022/03/27 06:34:22;;;;;;;26.95;11.05;;;;;;;2.83;56.35;94832.59;5031372;28;20098;-51
2022/03/27 06:36:49;;;;;;;29.63;11.55;;;;;;;2.92;56.26;94837.91;5030630;28;20064;-50
2022/03/27 06:39:16;;;;;;;31.17;11.80;;;;;;;3.22;55.79;94834.84;5013881;28;20042;-51
2022/03/27 06:41:43;;;;;;;27.50;11.27;;;;;;;3.57;54.83;94833.06;5030871;28;20057;-54
2022/03/27 06:44:13;;;;;;;28.48;11.68;;;;;;;3.43;55.01;94840.84;5031482;28;20037;-54
2022/03/27 06:46:40;;;;;;;30.83;12.18;;;;;;;3.31;55.10;94838.19;5030747;28;20429;-52
2022/03/27 06:49:07;;;;;;;28.85;12.23;;;;;;;3.65;55.02;94833.28;5030873;28;20045;-50
2022/03/27 06:51:34;;;;;;;28.53;11.93;;;;;;;3.63;55.03;94836.34;5029526;28;20037;-47
2022/03/27 06:54:01;;;;;;;29.42;12.25;;;;;;;4.00;53.35;94834.19;5031130;28;20042;-55
2022/03/27 06:56:27;;;;;;;26.75;11.75;;;;;;;4.22;52.81;94833.88;5031149;28;20064;-54
2022/03/27 06:58:54;;;;;;;27.30;11.45;;;;;;;4.45;52.53;94831.31;5030314;28;20046;-50
2022/03/27 07:04:07;;;;;;;29.13;11.70;;;;;;;4.65;52.58;94838.38;5030093;28;21896;-51
2022/03/27 07:06:34;;;;;;;28.45;11.38;;;;;;;5.05;51.57;94831.03;5030656;28;20053;-51
2022/03/27 07:09:01;;;;;;;27.35;11.85;;;;;;;4.63;52.75;94834.41;5014448;28;20042;-57
2022/03/27 07:11:28;;;;;;;29.35;12.43;;;;;;;4.97;51.84;94839.06;5028299;28;20053;-52
2022/03/27 07:13:55;;;;;;;26.25;12.63;;;;;;;5.93;49.99;94827.63;5030251;28;20052;-49
2022/03/27 07:16:22;;;;;;;27.20;12.33;;;;;;;8.63;43.84;94820.75;5030885;28;20048;-50
2022/03/27 07:18:49;;;;;;;28.23;12.68;;;;;;;10.72;39.75;94822.91;5030010;28;20053;-51
2022/03/27 07:21:18;;;;;;;27.50;12.98;;;;;;;13.11;33.85;94805.44;5030512;28;20043;-53
2022/03/27 07:23:45;;;;;;;27.92;12.90;;;;;;;13.10;33.99;94812.94;5029869;28;20068;-50
2022/03/27 07:26:12;;;;;;;24.92;13.18;;;;;;;15.58;30.97;94809.97;5030288;28;20033;-50
2022/03/27 07:28:39;;;;;;;24.30;12.73;;;;;;;15.60;30.40;94806.00;5029824;28;20072;-53
2022/03/27 07:31:06;;;;;;;25.33;13.30;;;;;;;17.09;28.74;94808.56;5030493;28;20057;-52
2022/03/27 07:33:33;;;;;;;24.95;12.32;;;;;;;14.69;30.12;94817.13;5028843;28;20041;-49
2022/03/27 07:36:00;;;;;;;23.20;11.18;;;;;;;18.12;26.37;94810.44;5030458;28;20048;-53
2022/03/27 07:38:27;;;;;;;21.50;11.75;;;;;;;21.09;22.57;94803.88;5030608;28;20054;-50
2022/03/27 07:40:59;;;;;;;23.37;13.10;;;;;;;18.29;25.68;94821.44;5029556;28;20074;-57
2022/03/27 07:43:27;;;;;;;22.73;10.98;;;;;;;20.12;22.12;94806.91;5030430;28;20498;-54
2022/03/27 07:45:54;;;;;;;22.08;11.35;;;;;;;19.22;23.05;94814.94;5029914;28;20063;-56
2022/03/27 07:48:20;;;;;;;21.73;10.85;;;;;;;22.92;19.76;94801.22;5030215;28;20491;-53
2022/03/27 07:50:54;;;;;;;20.35;9.93;;;;;;;24.48;17.66;94806.78;5029792;28;20048;-53
2022/03/27 07:53:21;;;;;;;19.23;10.30;;;;;;;25.71;16.71;94800.59;5030437;28;20388;-54
2022/03/27 07:55:48;;;;;;;19.25;9.95;;;;;;;17.82;22.20;94806.13;5012008;28;20487;-53
2022/03/27 07:58:15;;;;;;;19.42;10.13;;;;;;;16.67;24.17;94809.16;5029693;28;20047;-53
2022/03/27 08:00:42;;;;;;;19.17;9.32;;;;;;;22.50;18.36;94802.06;5029076;28;20048;-51
2022/03/27 08:03:09;;;;;;;22.15;9.95;;;;;;;24.36;16.54;94802.25;5034120;28;20046;-53
2022/03/27 08:05:37;;;;;;;16.57;9.67;;;;;;;22.53;18.20;94794.72;5033834;28;20045;-55
2022/03/27 08:08:04;;;;;;;17.13;9.80;;;;;;;21.94;18.58;94801.41;5033921;28;20044;-53
2022/03/27 08:10:31;;;;;;;17.13;9.05;;;;;;;24.31;16.18;94805.75;5034213;28;20045;-54
2022/03/27 08:12:59;;;;;;;18.45;9.57;;;;;;;20.80;19.01;94798.69;5033424;28;20417;-53
2022/03/27 08:15:26;;;;;;;18.95;9.48;;;;;;;23.54;16.72;94801.75;5032503;28;20054;-56
2022/03/27 08:17:56;;;;;;;18.53;9.20;;;;;;;24.75;16.02;94804.16;5033276;28;20049;-50
2022/03/27 08:20:24;;;;;;;19.80;10.10;;;;;;;23.71;16.44;94805.66;5033732;28;20045;-49
2022/03/27 08:22:51;;;;;;;18.50;9.40;;;;;;;23.21;16.72;94808.22;5032969;28;20041;-52
2022/03/27 08:28:04;;;;;;;19.10;9.50;;;;;;;26.43;13.57;94810.28;5032883;28;20760;-53
2022/03/27 08:30:31;;;;;;;16.80;9.90;;;;;;;22.21;16.73;94797.00;5032914;28;20046;-54
2022/03/27 08:32:58;;;;;;;18.75;9.50;;;;;;;23.81;15.87;94805.63;5030401;28;20587;-56
2022/03/27 08:35:25;;;;;;;17.55;9.60;;;;;;;25.35;14.88;94797.09;5032699;28;20034;-57
2022/03/27 08:37:52;;;;;;;18.23;9.48;;;;;;;24.47;15.69;94813.66;5032056;28;20090;-56
2022/03/27 08:40:20;;;;;;;16.30;9.77;;;;;;;21.01;17.62;94804.66;5032741;28;20037;-51
2022/03/27 08:42:48;;;;;;;20.53;9.77;;;;;;;22.98;16.70;94803.38;5031361;28;20395;-51
2022/03/27 08:45:15;;;;;;;18.45;9.75;;;;;;;24.06;14.99;94798.69;5032542;28;20052;-52
2022/03/27 08:47:42;;;;;;;20.92;10.07;;;;;;;20.33;18.48;94810.91;5031745;28;20042;-53
2022/03/27 08:50:31;;;;;;;20.35;10.05;;;;;;;22.00;17.54;94815.53;5032313;28;20037;-53
2022/03/27 08:53:00;;;;;;;17.88;9.57;;;;;;;23.29;15.94;94809.41;5031465;28;20170;-52
2022/03/27 08:56:02;;;;;;;21.97;10.47;;;;;;;17.22;21.71;94814.16;5032421;28;20061;-54
2022/03/27 08:58:37;;;;;;;20.15;10.00;;;;;;;20.93;18.46;94806.97;5031440;28;20041;-54
2022/03/27 09:01:05;;;;;;;19.48;11.07;;;;;;;20.59;18.39;94810.72;5031143;28;21512;-51
2022/03/27 09:03:33;;;;;;;21.90;10.50;;;;;;;19.51;19.80;94807.09;5032388;28;20054;-53
2022/03/27 09:06:01;;;;;;;20.75;9.95;;;;;;;24.36;15.69;94813.47;5031378;28;20759;-51
2022/03/27 09:08:36;;;;;;;22.63;10.77;;;;;;;23.10;16.26;94825.59;5031227;28;20083;-53
2022/03/27 09:11:03;;;;;;;20.85;11.45;;;;;;;21.08;18.50;94810.69;5063949;28;20054;-53
2022/03/27 09:13:32;;;;;;;19.92;11.60;;;;;;;24.88;15.28;94804.63;5032019;28;20053;-56
2022/03/27 09:16:05;;;;;;;21.00;11.32;;;;;;;24.45;15.15;94804.97;5062647;28;20775;-51
2022/03/27 09:18:52;;;;;;;20.88;10.93;;;;;;;22.40;16.36;94819.34;5030516;28;20052;-52
2022/03/27 09:21:21;;;;;;;18.80;10.77;;;;;;;23.11;16.41;94806.75;5031066;28;20258;-54
2022/03/27 09:23:57;;;;;;;19.95;11.00;;;;;;;24.59;15.09;94816.66;5031022;28;20063;-50
2022/03/27 09:26:24;;;;;;;19.00;11.55;;;;;;;23.61;16.11;94818.22;5031824;28;20046;-58
2022/03/27 09:29:05;;;;;;;21.05;11.32;;;;;;;23.68;15.79;94814.25;5031352;28;20044;-52
2022/03/27 09:31:32;;;;;;;19.27;11.15;;;;;;;24.60;14.88;94813.38;5031963;28;20058;-52
2022/03/27 09:34:01;;;;;;;20.20;11.40;;;;;;;23.46;15.73;94812.59;5031463;28;20379;-52
2022/03/27 09:36:39;;;;;;;18.90;10.85;;;;;;;28.35;13.02;94806.41;5032835;28;20494;-51
2022/03/27 09:39:09;;;;;;;19.55;11.38;;;;;;;26.61;13.82;94803.56;5031285;28;20766;-51
2022/03/27 09:41:51;;;;;;;17.92;11.05;;;;;;;27.25;13.32;94799.38;5032192;28;20425;-50
2022/03/27 09:44:30;;;;;;;21.80;12.40;;;;;;;21.99;17.34;94808.38;5031655;28;20053;-57
2022/03/27 09:47:04;;;;;;;23.97;12.43;;;;;;;24.47;15.42;94808.06;5031616;28;20042;-54
2022/03/27 09:49:30;;;;;;;19.88;11.75;;;;;;;27.40;13.77;94802.00;5032322;28;20045;-58
2022/03/27 09:51:57;;;;;;;23.50;14.18;;;;;;;29.48;11.91;94797.88;5031838;28;20483;-54
2022/03/27 09:54:26;;;;;;;23.70;12.50;;;;;;;26.27;14.11;94800.44;5032027;28;20041;-51
2022/03/27 09:56:53;;;;;;;23.63;13.20;;;;;;;25.19;15.21;94798.41;5031107;28;20056;-48
2022/03/27 09:59:30;;;;;;;21.37;12.07;;;;;;;24.31;15.76;94794.53;5032089;28;20042;-53
2022/03/27 10:02:17;;;;;;;20.70;12.35;;;;;;;27.57;13.77;94788.00;5031153;28;20055;-51
2022/03/27 10:05:14;;;;;;;22.33;14.02;;;;;;;28.49;12.89;94796.16;5031565;28;20050;-53
2022/03/27 10:07:50;;;;;;;21.92;12.80;;;;;;;28.26;13.65;94796.13;5030948;28;20041;-51
2022/03/27 10:10:21;;;;;;;20.00;12.00;;;;;;;26.15;14.56;94790.34;5031888;28;20050;-54
2022/03/27 10:12:51;;;;;;;21.50;12.00;;;;;;;29.84;12.03;94792.31;5031592;28;20059;-51
2022/03/27 10:15:23;;;;;;;22.48;12.38;;;;;;;29.83;11.75;94788.72;5031412;28;20045;-60
2022/03/27 10:17:55;;;;;;;21.77;13.40;;;;;;;26.76;14.14;94792.91;5031116;28;20537;-55
2022/03/27 10:20:25;;;;;;;23.60;14.15;;;;;;;27.38;13.84;94787.66;5031771;28;20044;-52
2022/03/27 10:22:57;;;;;;;21.98;14.00;;;;;;;24.21;16.36;94795.91;5030695;28;20060;-51
2022/03/27 10:25:32;;;;;;;20.83;13.77;;;;;;;25.80;15.21;94796.88;5030401;28;20039;-51
2022/03/27 10:27:59;;;;;;;24.02;14.55;;;;;;;23.96;16.17;94794.41;5030744;28;21921;-52
2022/03/27 10:30:26;;;;;;;23.05;14.68;;;;;;;25.37;15.38;94794.56;5031228;28;20405;-51
2022/03/27 10:32:53;;;;;;;22.67;13.32;;;;;;;27.22;14.28;94791.13;5037526;28;20455;-54
2022/03/27 10:35:29;;;;;;;20.52;13.38;;;;;;;29.55;12.22;94788.06;5027925;28;20041;-59
2022/03/27 10:38:16;;;;;;;21.17;13.40;;;;;;;28.59;12.28;94785.41;5018021;28;20061;-54
2022/03/27 10:41:01;;;;;;;21.70;13.75;;;;;;;21.50;18.44;94790.59;5021288;28;20053;-58
2022/03/27 10:43:48;;;;;;;20.08;13.88;;;;;;;26.25;14.05;94777.66;5023796;28;20053;-51
2022/03/27 10:46:14;;;;;;;21.33;13.38;;;;;;;27.09;13.23;94774.69;5025624;28;20053;-55
2022/03/27 10:48:42;;;;;;;23.75;14.23;;;;;;;24.27;15.88;94779.94;5025060;28;20060;-55
2022/03/27 10:51:11;;;;;;;21.57;13.47;;;;;;;24.56;15.43;94776.31;5026685;28;20045;-54
2022/03/27 10:53:38;;;;;;;21.25;13.93;;;;;;;23.28;16.48;94777.06;5025961;28;20057;-51
2022/03/27 10:56:05;;;;;;;20.27;12.75;;;;;;;24.66;15.50;94769.34;5025969;28;20405;-56
2022/03/27 10:59:06;;;;;;;19.88;12.57;;;;;;;23.39;15.59;94779.31;5026416;28;20050;-59
2022/03/27 11:01:42;;;;;;;19.90;12.75;;;;;;;20.86;17.43;94776.56;5014772;28;21541;-56
2022/03/27 11:04:11;;;;;;;23.27;13.70;;;;;;;21.12;18.47;94771.47;5056737;28;20371;-54
2022/03/27 11:06:44;;;;;;;21.67;14.05;;;;;;;21.28;18.39;94778.78;5024618;28;20049;-57
2022/03/27 11:09:30;;;;;;;22.30;13.40;;;;;;;24.32;15.84;94773.63;5025464;28;20049;-56
2022/03/27 11:11:57;;;;;;;21.02;13.40;;;;;;;24.15;15.55;94775.38;5023929;28;20123;-57
2022/03/27 11:14:50;;;;;;;21.15;13.50;;;;;;;24.29;15.67;94769.00;5026268;28;20053;-59
2022/03/27 11:17:40;;;;;;;20.97;12.93;;;;;;;22.21;17.04;94765.47;5024422;28;20660;-56
2022/03/27 11:20:31;;;;;;;21.70;13.25;;;;;;;24.71;15.13;94759.47;5024620;28;20883;-57
2022/03/27 11:23:00;;;;;;;21.77;13.98;;;;;;;22.53;17.16;94767.53;5025015;28;20514;-55
2022/03/27 11:25:27;;;;;;;24.75;13.65;;;;;;;22.27;17.58;94760.81;5025621;28;20065;-55
2022/03/27 11:28:08;;;;;;;24.85;13.75;;;;;;;22.52;16.60;94762.44;5023925;28;20061;-58
2022/03/27 11:30:37;;;;;;;21.30;14.20;;;;;;;22.76;17.10;94765.25;5023950;28;20049;-56
2022/03/27 11:33:24;;;;;;;21.67;14.05;;;;;;;23.44;16.41;94761.06;5025308;28;20047;-55
2022/03/27 11:36:14;;;;;;;20.92;13.15;;;;;;;23.33;16.45;94764.44;5024268;28;20051;-54
2022/03/27 11:39:02;;;;;;;24.48;13.35;;;;;;;20.74;17.81;94762.28;5057019;28;20053;-57
2022/03/27 11:41:45;;;;;;;21.35;12.75;;;;;;;20.29;18.96;94760.88;5025384;28;20057;-57
2022/03/27 11:47:34;;;;;;;23.27;13.45;;;;;;;18.24;21.48;94756.09;5024018;28;20747;-53
2022/03/27 11:50:01;;;;;;;23.83;13.55;;;;;;;18.33;21.19;94760.97;5024730;28;20045;-56